createdAt,value
2022-09-17T00:01:24.910Z,12.70
2022-09-17T00:03:55.551Z,12.70
2022-09-17T00:06:24.851Z,12.60
2022-09-17T00:08:53.679Z,12.60
2022-09-17T00:11:33.924Z,12.50
2022-09-17T00:14:03.053Z,12.50
2022-09-17T00:16:40.033Z,12.50
2022-09-17T00:19:12.421Z,12.40
2022-09-17T00:21:40.812Z,12.40
2022-09-17T00:24:07.815Z,12.30
2022-09-17T00:26:35.164Z,12.30
2022-09-17T00:29:01.957Z,12.30
2022-09-17T00:31:30.495Z,12.40
2022-09-17T00:33:59.771Z,12.40
2022-09-17T00:36:27.308Z,12.40
2022-09-17T00:38:59.259Z,12.40
2022-09-17T00:41:31.641Z,12.40
2022-09-17T00:44:02.763Z,12.40
2022-09-17T00:46:42.862Z,12.50
2022-09-17T00:49:25.203Z,12.40
2022-09-17T00:52:08.260Z,12.30
2022-09-17T00:54:40.944Z,12.30
2022-09-17T00:57:08.484Z,12.30
2022-09-17T00:59:35.919Z,12.30
2022-09-17T01:02:03.944Z,12.30
2022-09-17T01:04:30.760Z,12.30
2022-09-17T01:07:15.115Z,12.30
2022-09-17T01:09:56.116Z,12.30
2022-09-17T01:12:45.517Z,12.30
2022-09-17T01:15:35.253Z,12.20
2022-09-17T01:18:34.295Z,12.20
2022-09-17T01:21:31.605Z,12.20
2022-09-17T01:24:45.888Z,12.10
2022-09-17T01:27:35.059Z,12.10
2022-09-17T01:30:23.572Z,12.20
2022-09-17T01:33:18.014Z,12.10
2022-09-17T01:36:07.868Z,12.10
2022-09-17T01:38:59.232Z,12.30
2022-09-17T01:42:09.727Z,12.30
2022-09-17T01:44:49.214Z,12.40
2022-09-17T01:47:26.396Z,12.40
2022-09-17T01:50:00.361Z,12.50
2022-09-17T01:52:31.092Z,12.60
2022-09-17T01:55:05.582Z,12.50
2022-09-17T01:57:41.140Z,12.60
2022-09-17T02:00:15.654Z,12.60
2022-09-17T02:02:51.244Z,12.50
2022-09-17T02:05:38.528Z,12.50
2022-09-17T02:08:20.769Z,12.50
2022-09-17T02:11:04.567Z,12.60
2022-09-17T02:14:05.780Z,12.50
2022-09-17T02:16:37.224Z,12.50
2022-09-17T02:19:19.380Z,12.40
2022-09-17T02:22:12.148Z,12.40
2022-09-17T02:25:00.576Z,12.30
2022-09-17T02:27:52.331Z,12.30
2022-09-17T02:30:19.315Z,12.20
2022-09-17T02:32:46.519Z,12.20
2022-09-17T02:35:15.083Z,12.20
2022-09-17T02:37:44.229Z,12.20
2022-09-17T02:40:18.091Z,12.10
2022-09-17T02:43:23.148Z,12.20
2022-09-17T02:45:58.423Z,12.20
2022-09-17T02:48:48.152Z,12.20
2022-09-17T02:51:45.584Z,12.20
2022-09-17T02:54:42.155Z,12.20
2022-09-17T02:57:33.232Z,12.10
2022-09-17T03:00:17.766Z,12.10
2022-09-17T03:02:58.593Z,12.20
2022-09-17T03:05:27.881Z,12.20
2022-09-17T03:08:00.072Z,12.30
2022-09-17T03:10:33.384Z,12.30
2022-09-17T03:13:00.561Z,12.30
2022-09-17T03:15:28.272Z,12.30
2022-09-17T03:17:55.127Z,12.30
2022-09-17T03:20:22.160Z,12.20
2022-09-17T03:22:48.910Z,12.20
2022-09-17T03:25:15.850Z,12.10
2022-09-17T03:27:42.558Z,12.10
2022-09-17T03:30:09.756Z,12.10
2022-09-17T03:32:36.516Z,12.00
2022-09-17T03:35:03.371Z,12.00
2022-09-17T03:37:33.058Z,11.90
2022-09-17T03:40:00.334Z,11.80
2022-09-17T03:42:27.327Z,11.80
2022-09-17T03:44:54.069Z,11.70
2022-09-17T03:47:20.823Z,11.70
2022-09-17T03:49:47.578Z,11.70
2022-09-17T03:52:14.423Z,11.70
2022-09-17T03:54:41.149Z,11.60
2022-09-17T03:57:07.871Z,11.70
2022-09-17T03:59:34.589Z,11.80
2022-09-17T04:02:01.362Z,11.70
2022-09-17T04:04:28.169Z,11.80
2022-09-17T04:06:54.928Z,12.00
2022-09-17T04:09:21.825Z,12.00
2022-09-17T04:11:48.523Z,12.10
2022-09-17T04:14:15.287Z,12.10
2022-09-17T04:16:42.011Z,12.10
2022-09-17T04:19:08.761Z,12.00
2022-09-17T04:21:35.463Z,12.10
2022-09-17T04:24:02.456Z,12.00
2022-09-17T04:26:29.240Z,11.90
2022-09-17T04:28:56.247Z,11.90
2022-09-17T04:31:24.840Z,11.80
2022-09-17T04:33:51.631Z,11.80
2022-09-17T04:36:18.395Z,11.80
2022-09-17T04:38:48.855Z,11.80
2022-09-17T04:41:15.879Z,11.90
2022-09-17T04:43:42.648Z,11.90
2022-09-17T04:46:09.390Z,11.80
2022-09-17T04:48:36.156Z,11.80
2022-09-17T04:51:02.980Z,11.70
2022-09-17T04:53:29.685Z,11.70
2022-09-17T04:55:56.395Z,11.60
2022-09-17T04:58:23.268Z,11.70
2022-09-17T05:00:50.047Z,11.60
2022-09-17T05:03:16.945Z,11.60
2022-09-17T05:05:43.660Z,11.60
2022-09-17T05:08:10.451Z,11.60
2022-09-17T05:10:37.343Z,11.60
2022-09-17T05:13:04.127Z,11.60
2022-09-17T05:15:31.046Z,11.60
2022-09-17T05:17:57.834Z,11.60
2022-09-17T05:20:24.825Z,11.60
2022-09-17T05:22:52.905Z,11.60
2022-09-17T05:25:24.459Z,11.70
2022-09-17T05:27:53.460Z,11.70
2022-09-17T05:30:20.886Z,11.70
2022-09-17T05:32:48.583Z,11.80
2022-09-17T05:35:15.776Z,11.90
2022-09-17T05:37:42.536Z,12.00
2022-09-17T05:40:10.277Z,12.00
2022-09-17T05:42:37.395Z,12.00
2022-09-17T05:45:05.435Z,12.00
2022-09-17T05:47:32.255Z,12.10
2022-09-17T05:49:59.016Z,12.20
2022-09-17T05:52:29.682Z,12.20
2022-09-17T05:54:56.895Z,12.30
2022-09-17T05:57:24.642Z,12.20
2022-09-17T05:59:51.766Z,12.20
2022-09-17T06:02:18.724Z,12.20
2022-09-17T06:04:46.350Z,12.20
2022-09-17T06:07:13.546Z,12.20
2022-09-17T06:09:40.991Z,12.30
2022-09-17T06:12:08.430Z,12.60
2022-09-17T06:14:35.157Z,12.90
2022-09-17T06:17:01.892Z,13.10
2022-09-17T06:19:28.704Z,13.20
2022-09-17T06:21:55.701Z,13.40
2022-09-17T06:24:22.600Z,13.60
2022-09-17T06:26:49.500Z,13.80
2022-09-17T06:29:16.355Z,14.00
2022-09-17T06:31:44.673Z,13.80
2022-09-17T06:34:12.273Z,13.90
2022-09-17T06:36:39.468Z,13.80
2022-09-17T06:39:06.732Z,13.60
2022-09-17T06:41:33.860Z,13.40
2022-09-17T06:44:04.949Z,13.30
2022-09-17T06:46:31.853Z,13.40
2022-09-17T06:48:58.908Z,13.40
2022-09-17T06:51:25.672Z,13.50
2022-09-17T06:53:52.383Z,13.50
2022-09-17T06:56:19.637Z,13.50
2022-09-17T06:58:46.847Z,13.60
2022-09-17T07:01:14.627Z,13.60
2022-09-17T07:03:43.397Z,13.60
2022-09-17T07:06:11.198Z,13.60
2022-09-17T07:08:39.456Z,13.60
2022-09-17T07:11:06.644Z,13.50
2022-09-17T07:13:34.070Z,13.40
2022-09-17T07:16:03.361Z,13.30
2022-09-17T07:18:30.523Z,13.30
2022-09-17T07:21:03.558Z,13.30
2022-09-17T07:23:34.507Z,13.20
2022-09-17T07:26:08.786Z,13.20
2022-09-17T07:28:39.020Z,13.30
2022-09-17T07:31:07.421Z,13.30
2022-09-17T07:33:37.512Z,13.50
2022-09-17T07:36:12.094Z,13.50
2022-09-17T07:38:39.555Z,13.60
2022-09-17T07:41:15.498Z,13.60
2022-09-17T07:43:43.892Z,13.60
2022-09-17T07:46:19.329Z,14.00
2022-09-17T07:48:48.017Z,14.00
2022-09-17T07:51:28.361Z,14.00
2022-09-17T07:53:58.389Z,13.90
2022-09-17T07:56:27.281Z,14.00
2022-09-17T07:58:54.532Z,14.30
2022-09-17T08:01:22.535Z,14.50
2022-09-17T08:03:54.193Z,14.70
2022-09-17T08:06:27.972Z,14.60
2022-09-17T08:08:59.992Z,14.50
2022-09-17T08:11:54.582Z,14.40
2022-09-17T08:14:16.545Z,14.40
2022-09-17T08:16:45.492Z,14.50
2022-09-17T08:19:12.200Z,14.60
2022-09-17T08:21:39.007Z,15.00
2022-09-17T08:24:06.063Z,15.20
2022-09-17T08:26:32.776Z,15.10
2022-09-17T08:29:00.023Z,15.00
2022-09-17T08:31:30.005Z,15.00
2022-09-17T08:33:57.138Z,15.00
2022-09-17T08:36:26.016Z,15.10
2022-09-17T08:38:54.344Z,14.90
2022-09-17T08:41:28.291Z,14.80
2022-09-17T08:44:24.452Z,14.60
2022-09-17T08:47:00.372Z,14.50
2022-09-17T08:49:45.343Z,14.50
2022-09-17T08:52:22.153Z,14.30
2022-09-17T08:55:13.201Z,14.20
2022-09-17T08:58:33.852Z,14.20
2022-09-17T09:01:34.650Z,14.20
2022-09-17T09:05:02.414Z,14.20
2022-09-17T09:07:43.370Z,14.10
2022-09-17T09:10:26.607Z,14.10
2022-09-17T09:12:59.019Z,14.30
2022-09-17T09:15:45.301Z,14.40
2022-09-17T09:18:26.024Z,14.40
2022-09-17T09:21:00.688Z,14.30
2022-09-17T09:23:36.081Z,14.20
2022-09-17T09:26:19.402Z,14.20
2022-09-17T09:29:01.874Z,14.20
2022-09-17T09:31:58.511Z,14.40
2022-09-17T09:34:29.502Z,14.40
2022-09-17T09:37:25.809Z,14.70
2022-09-17T09:39:56.283Z,14.70
2022-09-17T09:42:35.651Z,15.00
2022-09-17T09:45:52.792Z,15.10
2022-09-17T09:49:15.519Z,15.30
2022-09-17T09:52:19.043Z,15.70
2022-09-17T09:55:17.966Z,15.60
2022-09-17T09:57:49.584Z,15.60
2022-09-17T10:00:43.459Z,15.20
2022-09-17T10:03:38.965Z,15.20
2022-09-17T10:06:09.970Z,15.20
2022-09-17T10:09:02.156Z,15.70
2022-09-17T10:11:33.164Z,15.80
2022-09-17T10:14:23.706Z,16.00
2022-09-17T10:17:17.651Z,16.10
2022-09-17T10:19:46.412Z,15.80
2022-09-17T10:22:27.091Z,15.80
2022-09-17T10:24:57.328Z,16.00
2022-09-17T10:27:26.170Z,16.00
2022-09-17T10:30:03.623Z,16.10
2022-09-17T10:32:30.909Z,16.30
2022-09-17T10:35:28.012Z,16.50
2022-09-17T10:37:55.191Z,16.60
2022-09-17T10:40:28.362Z,16.70
2022-09-17T10:43:16.299Z,16.50
2022-09-17T10:45:56.145Z,16.20
2022-09-17T10:48:23.326Z,16.10
2022-09-17T10:50:56.455Z,16.10
2022-09-17T10:53:26.742Z,16.30
2022-09-17T10:56:21.745Z,16.60
2022-09-17T10:59:34.612Z,16.70
2022-09-17T11:02:31.824Z,16.60
2022-09-17T11:05:53.768Z,16.90
2022-09-17T11:08:55.973Z,16.80
2022-09-17T11:11:40.681Z,16.90
2022-09-17T11:14:37.960Z,17.20
2022-09-17T11:17:26.164Z,17.00
2022-09-17T11:20:32.462Z,16.90
2022-09-17T11:23:46.531Z,16.60
2022-09-17T11:26:45.729Z,16.00
2022-09-17T11:29:48.943Z,15.70
2022-09-17T11:32:49.338Z,16.00
2022-09-17T11:35:47.144Z,16.20
2022-09-17T11:38:30.601Z,16.30
2022-09-17T11:41:12.649Z,16.40
2022-09-17T11:44:06.873Z,16.70
2022-09-17T11:46:45.568Z,16.80
2022-09-17T11:49:34.092Z,16.90
2022-09-17T11:52:22.246Z,16.30
2022-09-17T11:55:05.818Z,16.10
2022-09-17T11:57:40.052Z,15.70
2022-09-17T12:00:17.835Z,15.70
2022-09-17T12:03:13.937Z,15.70
2022-09-17T12:05:56.920Z,15.80
2022-09-17T12:08:57.589Z,15.90
2022-09-17T12:11:40.397Z,15.80
2022-09-17T12:14:44.583Z,15.70
2022-09-17T12:17:24.239Z,15.70
2022-09-17T12:20:01.475Z,15.60
2022-09-17T12:22:40.093Z,15.80
2022-09-17T12:25:13.119Z,15.80
2022-09-17T12:27:56.775Z,16.00
2022-09-17T12:30:32.343Z,16.10
2022-09-17T12:33:11.936Z,16.40
2022-09-17T12:36:26.218Z,16.60
2022-09-17T12:39:21.252Z,16.80
2022-09-17T12:42:31.220Z,16.80
2022-09-17T12:45:21.631Z,16.90
2022-09-17T12:48:40.935Z,16.70
2022-09-17T12:51:29.352Z,16.50
2022-09-17T12:54:32.523Z,16.80
2022-09-17T12:57:21.259Z,16.80
2022-09-17T13:00:16.095Z,16.80
2022-09-17T13:02:55.343Z,16.90
2022-09-17T13:05:49.523Z,16.90
2022-09-17T13:08:56.863Z,17.00
2022-09-17T13:11:54.942Z,17.20
2022-09-17T13:14:51.887Z,17.40
2022-09-17T13:18:20.053Z,17.50
2022-09-17T13:21:24.106Z,17.40
2022-09-17T13:23:53.605Z,17.40
2022-09-17T13:26:32.998Z,17.40
2022-09-17T13:28:59.764Z,17.50
2022-09-17T13:31:35.773Z,17.50
2022-09-17T13:34:03.421Z,17.60
2022-09-17T13:36:51.946Z,17.70
2022-09-17T13:39:50.747Z,17.80
2022-09-17T13:42:29.206Z,17.50
2022-09-17T13:45:13.210Z,17.30
2022-09-17T13:47:58.556Z,17.00
2022-09-17T13:50:33.313Z,16.90
2022-09-17T13:53:12.373Z,16.90
2022-09-17T13:55:43.262Z,17.00
2022-09-17T13:58:23.052Z,17.00
2022-09-17T14:01:00.137Z,16.90
2022-09-17T14:03:30.909Z,16.90
2022-09-17T14:06:18.768Z,16.90
2022-09-17T14:08:45.582Z,17.00
2022-09-17T14:11:39.348Z,17.20
2022-09-17T14:14:06.420Z,17.40
2022-09-17T14:16:50.358Z,17.20
2022-09-17T14:19:25.823Z,16.80
2022-09-17T14:21:57.297Z,16.40
2022-09-17T14:24:32.360Z,16.30
2022-09-17T14:27:32.896Z,16.40
2022-09-17T14:30:29.915Z,16.50
2022-09-17T14:33:19.236Z,16.50
2022-09-17T14:36:10.518Z,16.40
2022-09-17T14:38:38.424Z,16.30
2022-09-17T14:41:20.255Z,16.30
2022-09-17T14:44:12.870Z,16.20
2022-09-17T14:46:52.071Z,16.30
2022-09-17T14:49:31.880Z,16.50
2022-09-17T14:51:59.949Z,16.50
2022-09-17T14:54:36.002Z,16.50
2022-09-17T14:57:09.252Z,16.40
2022-09-17T14:59:53.379Z,16.40
2022-09-17T15:02:33.511Z,16.40
2022-09-17T15:05:01.924Z,16.40
2022-09-17T15:07:28.709Z,16.50
2022-09-17T15:10:14.791Z,16.50
2022-09-17T15:12:44.981Z,16.50
2022-09-17T15:15:26.198Z,16.60
2022-09-17T15:17:54.536Z,16.70
2022-09-17T15:20:31.331Z,16.60
2022-09-17T15:23:17.850Z,16.40
2022-09-17T15:25:49.842Z,16.40
2022-09-17T15:28:40.300Z,16.50
2022-09-17T15:31:19.617Z,16.50
2022-09-17T15:33:47.654Z,16.50
2022-09-17T15:36:27.617Z,16.40
2022-09-17T15:38:54.818Z,16.40
2022-09-17T15:41:39.560Z,16.50
2022-09-17T15:44:30.912Z,16.50
2022-09-17T15:47:55.919Z,16.40
2022-09-17T15:50:28.504Z,16.40
2022-09-17T15:53:05.341Z,16.30
2022-09-17T15:55:41.396Z,16.30
2022-09-17T15:58:32.952Z,16.30
2022-09-17T16:01:18.123Z,16.30
2022-09-17T16:03:44.965Z,16.20
2022-09-17T16:06:17.869Z,16.10
2022-09-17T16:08:51.291Z,16.10
2022-09-17T16:11:21.628Z,16.10
2022-09-17T16:13:55.324Z,16.00
2022-09-17T16:16:40.276Z,16.00
2022-09-17T16:19:07.303Z,16.00
2022-09-17T16:21:34.025Z,15.90
2022-09-17T16:24:00.964Z,15.90
2022-09-17T16:26:34.253Z,15.90
2022-09-17T16:29:12.032Z,15.80
2022-09-17T16:31:38.906Z,15.70
2022-09-17T16:34:05.694Z,15.60
2022-09-17T16:36:32.529Z,15.30
2022-09-17T16:38:59.870Z,15.00
2022-09-17T16:41:26.877Z,14.70
2022-09-17T16:43:53.672Z,14.60
2022-09-17T16:46:20.448Z,14.40
2022-09-17T16:48:51.124Z,14.10
2022-09-17T16:51:18.011Z,14.00
2022-09-17T16:53:44.959Z,13.90
2022-09-17T16:56:15.262Z,13.80
2022-09-17T16:58:42.316Z,13.70
2022-09-17T17:01:15.420Z,13.80
2022-09-17T17:03:42.989Z,13.60
2022-09-17T17:06:20.972Z,13.60
2022-09-17T17:08:48.719Z,13.50
2022-09-17T17:11:15.784Z,13.60
2022-09-17T17:13:43.505Z,13.60
2022-09-17T17:16:13.300Z,13.50
2022-09-17T17:18:43.983Z,13.50
2022-09-17T17:21:14.211Z,13.50
2022-09-17T17:23:43.405Z,13.50
2022-09-17T17:26:10.194Z,13.40
2022-09-17T17:28:37.732Z,13.40
2022-09-17T17:31:05.791Z,13.40
2022-09-17T17:33:33.328Z,13.40
2022-09-17T17:36:07.534Z,13.40
2022-09-17T17:38:35.924Z,13.20
2022-09-17T17:41:12.003Z,13.20
2022-09-17T17:43:39.920Z,13.30
2022-09-17T17:46:10.123Z,13.20
2022-09-17T17:48:37.807Z,13.30
2022-09-17T17:51:07.618Z,13.30
2022-09-17T17:53:34.928Z,13.30
2022-09-17T17:56:06.656Z,13.30
2022-09-17T17:58:35.059Z,13.20
2022-09-17T18:01:15.771Z,13.20
2022-09-17T18:03:43.336Z,13.20
2022-09-17T18:06:10.561Z,13.20
2022-09-17T18:08:40.168Z,13.20
2022-09-17T18:11:09.181Z,13.10
2022-09-17T18:13:38.115Z,13.20
2022-09-17T18:16:08.566Z,13.10
2022-09-17T18:18:44.916Z,13.20
2022-09-17T18:21:16.851Z,13.20
2022-09-17T18:23:45.174Z,13.30
2022-09-17T18:26:16.634Z,13.30
2022-09-17T18:28:44.449Z,13.20
2022-09-17T18:31:25.714Z,13.10
2022-09-17T18:34:02.212Z,13.20
2022-09-17T18:36:32.658Z,13.20
2022-09-17T18:39:57.049Z,13.20
2022-09-17T18:41:49.241Z,13.10
2022-09-17T18:44:18.548Z,13.10
2022-09-17T18:46:47.796Z,13.00
2022-09-17T18:49:15.634Z,13.00
2022-09-17T18:51:42.592Z,12.80
2022-09-17T18:54:12.524Z,12.90
2022-09-17T18:56:41.387Z,12.80
2022-09-17T18:59:08.663Z,12.80
2022-09-17T19:01:36.170Z,12.80
2022-09-17T19:04:04.314Z,12.80
2022-09-17T19:06:32.116Z,12.70
2022-09-17T19:09:04.704Z,12.70
2022-09-17T19:11:31.801Z,12.70
2022-09-17T19:13:58.643Z,12.70
2022-09-17T19:16:25.924Z,12.70
2022-09-17T19:18:52.842Z,12.70
2022-09-17T19:21:21.468Z,12.70
2022-09-17T19:23:51.827Z,12.60
2022-09-17T19:26:22.672Z,12.60
2022-09-17T19:28:55.388Z,12.70
2022-09-17T19:31:22.354Z,12.70
2022-09-17T19:33:50.659Z,12.70
2022-09-17T19:36:19.189Z,12.60
2022-09-17T19:38:47.594Z,12.60
2022-09-17T19:41:20.941Z,12.50
2022-09-17T19:43:51.439Z,12.50
2022-09-17T19:46:22.263Z,12.50
2022-09-17T19:48:53.477Z,12.50
2022-09-17T19:51:22.843Z,12.50
2022-09-17T19:53:50.369Z,12.60
2022-09-17T19:56:21.716Z,12.60
2022-09-17T19:58:48.906Z,12.70
2022-09-17T20:01:16.934Z,12.80
2022-09-17T20:03:45.599Z,12.70
2022-09-17T20:06:16.940Z,12.70
2022-09-17T20:08:49.091Z,12.70
2022-09-17T20:11:17.914Z,12.70
2022-09-17T20:13:44.763Z,12.70
2022-09-17T20:16:16.960Z,12.70
2022-09-17T20:18:44.226Z,12.70
2022-09-17T20:21:13.075Z,12.70
2022-09-17T20:23:40.264Z,12.70
2022-09-17T20:26:07.340Z,12.70
2022-09-17T20:28:34.771Z,12.70
2022-09-17T20:31:08.567Z,12.70
2022-09-17T20:33:35.387Z,12.70
2022-09-17T20:36:06.378Z,12.60
2022-09-17T20:41:21.588Z,12.60
2022-09-17T20:43:51.962Z,12.60
2022-09-17T20:46:27.668Z,12.60
2022-09-17T20:48:57.325Z,12.50
2022-09-17T20:51:27.863Z,12.50
2022-09-17T20:53:56.927Z,12.50
2022-09-17T20:56:28.714Z,12.40
2022-09-17T20:59:08.164Z,12.50
2022-09-17T21:01:37.302Z,12.50
2022-09-17T21:04:07.559Z,12.50
2022-09-17T21:06:41.542Z,12.50
2022-09-17T21:09:11.956Z,12.50
2022-09-17T21:11:39.072Z,12.60
2022-09-17T21:14:06.165Z,12.60
2022-09-17T21:16:32.934Z,12.60
2022-09-17T21:19:05.243Z,12.70
2022-09-17T21:21:35.271Z,12.70
2022-09-17T21:24:05.642Z,12.70
2022-09-17T21:26:34.369Z,12.70
2022-09-17T21:29:01.655Z,12.80
2022-09-17T21:31:35.728Z,12.80
2022-09-17T21:34:07.944Z,12.80
2022-09-17T21:36:37.603Z,12.80
2022-09-17T21:39:17.460Z,12.80
2022-09-17T21:41:45.824Z,12.80
2022-09-17T21:44:13.553Z,12.80
2022-09-17T21:46:42.350Z,12.90
2022-09-17T21:49:10.139Z,12.90
2022-09-17T21:51:42.678Z,12.90
2022-09-17T21:54:13.270Z,12.90
2022-09-17T21:56:40.209Z,12.90
2022-09-17T21:59:10.939Z,12.90
2022-09-17T22:01:45.869Z,12.90
2022-09-17T22:04:19.243Z,12.90
2022-09-17T22:06:48.710Z,12.90
2022-09-17T22:09:23.723Z,12.90
2022-09-17T22:11:51.568Z,12.90
2022-09-17T22:14:21.882Z,12.90
2022-09-17T22:16:57.137Z,12.80
2022-09-17T22:19:25.417Z,12.80
2022-09-17T22:21:54.771Z,12.80
2022-09-17T22:24:25.499Z,12.80
2022-09-17T22:26:57.835Z,12.80
2022-09-17T22:29:27.691Z,12.80
2022-09-17T22:31:54.654Z,12.80
2022-09-17T22:34:23.260Z,12.80
2022-09-17T22:36:50.438Z,12.80
2022-09-17T22:39:19.824Z,12.80
2022-09-17T22:41:47.322Z,12.80
2022-09-17T22:44:17.979Z,12.80
2022-09-17T22:46:49.176Z,12.70
2022-09-17T22:49:16.539Z,12.70
2022-09-17T22:51:44.906Z,12.80
2022-09-17T22:54:14.423Z,12.80
2022-09-17T22:56:42.282Z,12.80
2022-09-17T22:59:09.162Z,12.80
2022-09-17T23:01:37.181Z,12.80
2022-09-17T23:04:05.260Z,12.90
2022-09-17T23:06:37.845Z,12.90
2022-09-17T23:09:06.189Z,12.90
2022-09-17T23:11:36.500Z,12.90
2022-09-17T23:14:08.650Z,13.00
2022-09-17T23:16:45.492Z,12.90
2022-09-17T23:19:14.155Z,12.90
2022-09-17T23:21:41.291Z,12.90
2022-09-17T23:24:16.348Z,12.90
2022-09-17T23:26:43.068Z,13.00
2022-09-17T23:29:09.784Z,12.90
2022-09-17T23:31:36.820Z,12.90
2022-09-17T23:34:05.557Z,12.90
2022-09-17T23:36:36.500Z,12.90
2022-09-17T23:39:04.985Z,12.90
2022-09-17T23:41:38.205Z,12.90
2022-09-17T23:44:14.522Z,12.90
2022-09-17T23:46:44.082Z,12.90
2022-09-17T23:49:13.016Z,12.90
2022-09-17T23:51:39.877Z,12.90
2022-09-17T23:54:07.150Z,12.90
2022-09-17T23:56:34.873Z,12.90
2022-09-17T23:59:02.442Z,12.90
